El Colorado, Argentina
Current Conditions -  °F | °C
As of 6:00 AM on Thursday 27 Nov 2014 (Local Time) from SARF Reporting Station
Clear Clear  
Wind Chill: 72°   Ceiling: Unl
Heat Index: 72°   Visibility: 6mi
Dew Point: 70°   Wind: 7mph
Humidity: 94%   Direction: 180°S
Pressure: 29.88"   Gusts: NA
Location:  26.3°S, 59.37°W
Report Text: SARF 270900Z 18006KT CAVOK 22/21 Q1012
Loading
Personal Weather Stations






























Interactive Weather Map New forecast layout! Learn more

10-Day Weather Forecast

Advertisements
Track Severe Weather on mobile